createdAt,value
2023-02-11T00:00:24.872Z,15.98
2023-02-11T00:02:52.175Z,17.90
2023-02-11T00:05:19.811Z,13.68
2023-02-11T00:07:47.220Z,14.30
2023-02-11T00:10:14.514Z,15.35
2023-02-11T00:12:43.278Z,15.00
2023-02-11T00:15:10.579Z,15.13
2023-02-11T00:17:37.975Z,14.38
2023-02-11T00:20:08.182Z,13.98
2023-02-11T00:22:35.820Z,13.40
2023-02-11T00:25:03.076Z,13.95
2023-02-11T00:27:30.658Z,13.60
2023-02-11T00:29:57.947Z,14.43
2023-02-11T00:32:25.415Z,13.93
2023-02-11T00:34:53.284Z,12.15
2023-02-11T00:37:20.849Z,13.23
2023-02-11T00:39:48.355Z,11.30
2023-02-11T00:42:15.653Z,12.20
2023-02-11T00:44:44.608Z,12.27
2023-02-11T00:47:11.997Z,11.95
2023-02-11T00:49:40.559Z,12.75
2023-02-11T00:52:07.837Z,12.60
2023-02-11T00:54:35.132Z,12.70
2023-02-11T00:57:02.587Z,12.52
2023-02-11T00:59:30.047Z,10.68
2023-02-11T01:01:57.316Z,14.57
2023-02-11T01:04:24.607Z,13.23
2023-02-11T01:06:52.770Z,12.85
2023-02-11T01:09:21.253Z,12.38
2023-02-11T01:11:48.561Z,11.98
2023-02-11T01:14:16.042Z,11.00
2023-02-11T01:16:43.559Z,10.83
2023-02-11T01:19:10.882Z,10.43
2023-02-11T01:21:38.757Z,10.90
2023-02-11T01:24:06.351Z,10.88
2023-02-11T01:26:33.862Z,11.90
2023-02-11T01:29:01.343Z,11.60
2023-02-11T01:31:28.717Z,11.50
2023-02-11T01:33:56.046Z,10.70
2023-02-11T01:36:23.420Z,11.27
2023-02-11T01:38:50.785Z,11.27
2023-02-11T01:41:20.717Z,11.00
2023-02-11T01:43:49.299Z,12.02
2023-02-11T01:46:36.560Z,11.15
2023-02-11T01:49:07.430Z,10.90
2023-02-11T01:52:04.102Z,10.73
2023-02-11T01:54:55.362Z,12.10
2023-02-11T01:57:25.256Z,11.75
2023-02-11T02:00:25.145Z,13.18
2023-02-11T02:03:13.188Z,11.70
2023-02-11T02:05:47.799Z,12.30
2023-02-11T02:08:25.747Z,11.10
2023-02-11T02:10:56.810Z,11.70
2023-02-11T02:13:24.295Z,12.15
2023-02-11T02:16:00.826Z,12.35
2023-02-11T02:18:52.620Z,11.82
2023-02-11T02:21:20.150Z,12.77
2023-02-11T02:23:56.273Z,12.95
2023-02-11T02:26:37.246Z,12.73
2023-02-11T02:29:22.585Z,12.40
2023-02-11T02:32:11.730Z,13.18
2023-02-11T02:35:05.762Z,13.77
2023-02-11T02:37:43.530Z,12.52
2023-02-11T02:40:29.939Z,12.80
2023-02-11T02:42:57.352Z,10.77
2023-02-11T02:45:24.584Z,12.15
2023-02-11T02:47:51.978Z,10.43
2023-02-11T02:50:25.069Z,10.40
2023-02-11T02:53:14.024Z,10.50
2023-02-11T02:55:51.853Z,10.88
2023-02-11T02:58:24.101Z,10.55
2023-02-11T03:00:57.536Z,10.37
2023-02-11T03:03:43.431Z,10.48
2023-02-11T03:06:18.153Z,11.35
2023-02-11T03:09:06.270Z,12.48
2023-02-11T03:11:33.632Z,12.55
2023-02-11T03:14:01.262Z,10.17
2023-02-11T03:16:28.794Z,11.15
2023-02-11T03:19:02.155Z,11.05
2023-02-11T03:21:30.937Z,10.52
2023-02-11T03:24:00.534Z,10.63
2023-02-11T03:26:37.207Z,10.17
2023-02-11T03:29:14.523Z,10.63
2023-02-11T03:32:19.471Z,10.85
2023-02-11T03:35:06.666Z,10.90
2023-02-11T03:37:40.977Z,10.25
2023-02-11T03:40:09.277Z,10.23
2023-02-11T03:42:40.335Z,10.10
2023-02-11T03:45:12.645Z,10.55
2023-02-11T03:47:41.704Z,9.98
2023-02-11T03:50:10.180Z,9.65
2023-02-11T03:52:37.489Z,9.33
2023-02-11T03:55:11.619Z,8.40
2023-02-11T03:57:39.031Z,9.23
2023-02-11T04:00:06.848Z,8.90
2023-02-11T04:02:38.765Z,9.48
2023-02-11T04:05:09.578Z,8.97
2023-02-11T04:07:36.902Z,9.75
2023-02-11T04:10:04.696Z,10.02
2023-02-11T04:12:32.131Z,10.05
2023-02-11T04:14:59.366Z,10.45
2023-02-11T04:17:26.634Z,9.97
2023-02-11T04:19:53.880Z,11.18
2023-02-11T04:22:21.254Z,9.75
2023-02-11T04:24:48.528Z,11.40
2023-02-11T04:27:15.896Z,12.63
2023-02-11T04:29:43.196Z,14.73
2023-02-11T04:32:11.516Z,16.02
2023-02-11T04:34:38.913Z,15.18
2023-02-11T04:37:06.305Z,13.15
2023-02-11T04:39:33.589Z,12.82
2023-02-11T04:42:00.984Z,11.43
2023-02-11T04:44:28.313Z,10.57
2023-02-11T04:46:55.633Z,8.95
2023-02-11T04:49:22.921Z,10.25
2023-02-11T04:51:50.341Z,10.55
2023-02-11T04:54:17.805Z,10.87
2023-02-11T04:56:45.148Z,9.93
2023-02-11T04:59:13.446Z,11.40
2023-02-11T05:01:41.004Z,9.35
2023-02-11T05:04:08.338Z,10.50
2023-02-11T05:06:35.739Z,11.00
2023-02-11T05:09:03.073Z,11.60
2023-02-11T05:11:30.462Z,13.43
2023-02-11T05:13:57.818Z,16.35
2023-02-11T05:16:25.273Z,13.40
2023-02-11T05:18:53.823Z,15.27
2023-02-11T05:21:21.260Z,14.10
2023-02-11T05:23:48.567Z,14.88
2023-02-11T05:26:16.049Z,14.80
2023-02-11T05:28:43.378Z,14.85
2023-02-11T05:31:11.225Z,15.63
2023-02-11T05:33:38.610Z,15.05
2023-02-11T05:36:08.456Z,12.23
2023-02-11T05:38:36.128Z,12.10
2023-02-11T05:41:03.859Z,10.77
2023-02-11T05:43:31.303Z,11.40
2023-02-11T05:45:58.620Z,12.02
2023-02-11T05:48:26.007Z,10.85
2023-02-11T05:50:53.297Z,11.93
2023-02-11T05:53:20.582Z,10.68
2023-02-11T05:55:47.970Z,10.00
2023-02-11T05:58:15.542Z,11.35
2023-02-11T06:00:42.834Z,11.73
2023-02-11T06:03:10.173Z,13.20
2023-02-11T06:05:37.450Z,12.30
2023-02-11T06:08:05.190Z,13.93
2023-02-11T06:10:32.447Z,14.82
2023-02-11T06:12:59.752Z,14.52
2023-02-11T06:15:26.993Z,14.57
2023-02-11T06:17:54.332Z,13.65
2023-02-11T06:20:21.660Z,16.23
2023-02-11T06:22:49.025Z,15.40
2023-02-11T06:25:16.317Z,13.32
2023-02-11T06:27:43.732Z,6.63
2023-02-11T06:30:11.409Z,9.77
2023-02-11T06:32:44.335Z,10.90
2023-02-11T06:35:13.112Z,10.93
2023-02-11T06:37:42.022Z,27.15
2023-02-11T06:40:10.439Z,23.65
2023-02-11T06:42:39.425Z,12.50
2023-02-11T06:45:09.533Z,10.40
2023-02-11T06:47:37.518Z,10.13
2023-02-11T06:50:05.973Z,11.18
2023-02-11T06:52:33.900Z,12.50
2023-02-11T06:55:01.270Z,11.75
2023-02-11T06:57:28.643Z,12.90
2023-02-11T06:59:56.018Z,12.63
2023-02-11T07:02:23.410Z,12.38
2023-02-11T07:04:50.686Z,12.43
2023-02-11T07:07:18.122Z,15.00
2023-02-11T07:09:45.420Z,16.07
2023-02-11T07:12:12.751Z,19.83
2023-02-11T07:14:40.481Z,21.92
2023-02-11T07:17:07.801Z,24.02
2023-02-11T07:19:35.089Z,24.70
2023-02-11T07:22:02.456Z,24.00
2023-02-11T07:24:29.794Z,22.75
2023-02-11T07:26:57.164Z,23.10
2023-02-11T07:29:24.422Z,24.77
2023-02-11T07:31:51.785Z,22.67
2023-02-11T07:34:19.099Z,19.50
2023-02-11T07:36:46.572Z,16.88
2023-02-11T07:39:13.835Z,16.65
2023-02-11T07:41:41.181Z,13.82
2023-02-11T07:44:08.684Z,11.18
2023-02-11T07:46:36.126Z,12.63
2023-02-11T07:49:03.739Z,10.52
2023-02-11T07:51:31.267Z,12.70
2023-02-11T07:53:59.659Z,13.48
2023-02-11T07:56:27.542Z,9.60
2023-02-11T07:58:55.043Z,12.80
2023-02-11T08:01:28.430Z,13.02
2023-02-11T08:03:57.543Z,13.55
2023-02-11T08:06:26.232Z,11.38
2023-02-11T08:08:53.604Z,10.15
2023-02-11T08:11:28.283Z,12.47
2023-02-11T08:13:56.042Z,9.55
2023-02-11T08:16:28.166Z,10.88
2023-02-11T08:18:59.835Z,11.55
2023-02-11T08:21:27.353Z,10.35
2023-02-11T08:23:54.918Z,8.60
2023-02-11T08:26:24.715Z,9.38
2023-02-11T08:28:52.892Z,9.63
2023-02-11T08:31:22.297Z,10.68
2023-02-11T08:33:49.811Z,12.05
2023-02-11T08:36:19.059Z,11.30
2023-02-11T08:38:46.297Z,9.82
2023-02-11T08:41:15.069Z,11.45
2023-02-11T08:43:42.642Z,9.32
2023-02-11T08:46:14.144Z,11.88
2023-02-11T08:48:41.693Z,11.43
2023-02-11T08:51:10.247Z,11.80
2023-02-11T08:53:37.765Z,13.15
2023-02-11T08:56:05.461Z,12.10
2023-02-11T08:58:33.068Z,11.43
2023-02-11T09:01:00.419Z,9.70
2023-02-11T09:03:27.871Z,8.85
2023-02-11T09:05:55.233Z,8.77
2023-02-11T09:08:22.674Z,10.40
2023-02-11T09:10:50.358Z,7.93
2023-02-11T09:13:18.038Z,8.33
2023-02-11T09:15:46.506Z,8.45
2023-02-11T09:18:14.152Z,9.35
2023-02-11T09:20:41.560Z,8.43
2023-02-11T09:23:09.761Z,7.63
2023-02-11T09:25:40.386Z,7.53
2023-02-11T09:28:08.538Z,7.53
2023-02-11T09:30:39.075Z,8.68
2023-02-11T09:33:06.550Z,8.02
2023-02-11T09:35:34.680Z,7.88
2023-02-11T09:38:02.012Z,7.33
2023-02-11T09:40:29.315Z,8.13
2023-02-11T09:43:09.142Z,7.60
2023-02-11T09:45:36.685Z,6.85
2023-02-11T09:48:18.510Z,7.28
2023-02-11T09:50:57.433Z,8.80
2023-02-11T09:53:26.275Z,6.05
2023-02-11T09:55:59.699Z,7.82
2023-02-11T09:58:29.013Z,10.45
2023-02-11T10:01:11.564Z,8.82
2023-02-11T10:03:59.351Z,7.13
2023-02-11T10:06:45.842Z,6.10
2023-02-11T10:09:19.301Z,7.55
2023-02-11T10:12:03.212Z,8.07
2023-02-11T10:14:55.649Z,6.53
2023-02-11T10:17:53.840Z,8.73
2023-02-11T10:20:26.679Z,7.00
2023-02-11T10:22:55.326Z,7.63
2023-02-11T10:25:28.869Z,8.25
2023-02-11T10:27:58.212Z,8.45
2023-02-11T10:30:29.478Z,9.27
2023-02-11T10:33:12.097Z,7.95
2023-02-11T10:35:39.416Z,9.82
2023-02-11T10:38:07.811Z,9.65
2023-02-11T10:40:35.161Z,9.27
2023-02-11T10:43:05.081Z,9.83
2023-02-11T10:45:34.321Z,9.55
2023-02-11T10:48:02.271Z,9.90
2023-02-11T10:50:32.709Z,9.88
2023-02-11T10:53:12.237Z,9.55
2023-02-11T10:55:39.731Z,7.17
2023-02-11T10:58:07.018Z,6.03
2023-02-11T11:00:38.172Z,7.10
2023-02-11T11:03:22.282Z,7.60
2023-02-11T11:05:51.249Z,8.18
2023-02-11T11:08:21.526Z,7.83
2023-02-11T11:11:03.854Z,8.30
2023-02-11T11:13:36.016Z,7.57
2023-02-11T11:16:12.260Z,7.15
2023-02-11T11:18:46.253Z,8.68
2023-02-11T11:21:27.343Z,7.20
2023-02-11T11:23:59.492Z,9.15
2023-02-11T11:26:51.059Z,9.68
2023-02-11T11:29:31.420Z,9.02
2023-02-11T11:32:04.935Z,8.80
2023-02-11T11:34:33.227Z,8.63
2023-02-11T11:37:02.500Z,8.95
2023-02-11T11:39:31.413Z,8.80
2023-02-11T11:42:03.342Z,9.55
2023-02-11T11:44:37.532Z,9.05
2023-02-11T11:47:25.600Z,7.87
2023-02-11T11:50:27.843Z,7.95
2023-02-11T11:53:04.612Z,7.63
2023-02-11T11:55:51.719Z,8.85
2023-02-11T11:58:22.789Z,7.70
2023-02-11T12:01:02.129Z,8.00
2023-02-11T12:03:33.326Z,9.13
2023-02-11T12:06:09.364Z,8.02
2023-02-11T12:08:36.641Z,7.15
2023-02-11T12:11:08.096Z,8.60
2023-02-11T12:14:03.390Z,8.47
2023-02-11T12:16:45.472Z,8.23
2023-02-11T12:19:34.791Z,8.73
2023-02-11T12:22:10.613Z,7.30
2023-02-11T12:25:00.403Z,8.95
2023-02-11T12:27:30.718Z,9.23
2023-02-11T12:30:27.073Z,8.48
2023-02-11T12:33:33.039Z,6.47
2023-02-11T12:36:41.899Z,7.60
2023-02-11T12:39:36.581Z,7.82
2023-02-11T12:42:25.458Z,8.00
2023-02-11T12:45:11.023Z,8.73
2023-02-11T12:47:45.908Z,8.18
2023-02-11T12:50:53.646Z,8.23
2023-02-11T12:53:36.154Z,8.63
2023-02-11T12:56:19.999Z,6.90
2023-02-11T12:58:48.004Z,7.20
2023-02-11T13:01:19.570Z,7.65
2023-02-11T13:04:11.773Z,7.68
2023-02-11T13:06:41.956Z,7.10
2023-02-11T13:09:19.010Z,7.47
2023-02-11T13:11:52.148Z,6.95
2023-02-11T13:14:29.240Z,7.38
2023-02-11T13:16:58.591Z,7.93
2023-02-11T13:19:57.120Z,5.95
2023-02-11T13:22:59.408Z,5.73
2023-02-11T13:25:31.578Z,5.32
2023-02-11T13:28:14.533Z,5.57
2023-02-11T13:30:47.292Z,5.88
2023-02-11T13:33:20.107Z,5.95
2023-02-11T13:36:11.881Z,5.60
2023-02-11T13:38:39.380Z,7.03
2023-02-11T13:41:06.933Z,7.15
2023-02-11T13:43:35.444Z,7.20
2023-02-11T13:46:04.732Z,7.20
2023-02-11T13:48:34.909Z,7.60
2023-02-11T13:51:04.625Z,7.25
2023-02-11T13:53:54.754Z,6.57
2023-02-11T13:56:31.103Z,7.25
2023-02-11T13:59:01.905Z,6.15
2023-02-11T14:02:06.602Z,7.13
2023-02-11T14:04:52.771Z,6.60
2023-02-11T14:07:45.551Z,7.25
2023-02-11T14:10:43.833Z,7.10
2023-02-11T14:13:23.573Z,8.68
2023-02-11T14:16:20.378Z,8.67
2023-02-11T14:18:55.859Z,8.25
2023-02-11T14:21:30.434Z,8.43
2023-02-11T14:24:07.198Z,8.15
2023-02-11T14:26:57.921Z,7.90
2023-02-11T14:29:37.376Z,8.00
2023-02-11T14:32:29.675Z,6.40
2023-02-11T14:35:10.810Z,8.15
2023-02-11T14:37:50.886Z,7.40
2023-02-11T14:40:30.768Z,8.13
2023-02-11T14:42:58.876Z,12.03
2023-02-11T14:45:27.678Z,12.43
2023-02-11T14:48:05.724Z,8.75
2023-02-11T14:50:45.522Z,7.75
2023-02-11T14:53:15.824Z,8.63
2023-02-11T14:55:43.659Z,8.70
2023-02-11T14:58:18.321Z,8.32
2023-02-11T15:00:50.060Z,9.55
2023-02-11T15:03:39.823Z,10.23
2023-02-11T15:06:18.466Z,9.18
2023-02-11T15:08:58.373Z,9.07
2023-02-11T15:11:26.066Z,10.50
2023-02-11T15:13:55.510Z,10.68
2023-02-11T15:16:24.004Z,9.88
2023-02-11T15:18:56.215Z,10.82
2023-02-11T15:21:28.758Z,11.60
2023-02-11T15:24:03.536Z,12.23
2023-02-11T15:26:31.030Z,12.27
2023-02-11T15:28:58.303Z,9.93
2023-02-11T15:31:26.793Z,11.73
2023-02-11T15:33:54.420Z,12.10
2023-02-11T15:36:28.377Z,14.38
2023-02-11T15:39:18.567Z,13.38
2023-02-11T15:41:46.030Z,12.20
2023-02-11T15:44:30.456Z,11.18
2023-02-11T15:46:57.899Z,10.63
2023-02-11T15:49:25.772Z,11.50
2023-02-11T15:51:54.105Z,13.40
2023-02-11T15:54:24.139Z,10.00
2023-02-11T15:56:52.092Z,10.10
2023-02-11T15:59:30.705Z,14.50
2023-02-11T16:01:58.734Z,9.80
2023-02-11T16:04:26.798Z,12.43
2023-02-11T16:06:54.817Z,10.23
2023-02-11T16:09:33.372Z,12.60
2023-02-11T16:12:07.637Z,11.50
2023-02-11T16:14:39.488Z,14.20
2023-02-11T16:17:12.553Z,12.95
2023-02-11T16:19:44.423Z,12.27
2023-02-11T16:22:15.117Z,12.75
2023-02-11T16:24:42.431Z,15.57
2023-02-11T16:27:18.802Z,14.10
2023-02-11T16:29:47.840Z,13.02
2023-02-11T16:32:19.181Z,14.50
2023-02-11T16:34:47.931Z,14.00
2023-02-11T16:37:15.288Z,13.63
2023-02-11T16:39:42.587Z,13.65
2023-02-11T16:42:11.347Z,19.67
2023-02-11T16:44:38.782Z,18.10
2023-02-11T16:47:08.178Z,18.33
2023-02-11T16:49:41.155Z,17.60
2023-02-11T16:52:14.527Z,17.75
2023-02-11T16:54:41.952Z,19.25
2023-02-11T16:57:16.048Z,18.40
2023-02-11T16:59:43.789Z,23.25
2023-02-11T17:02:23.628Z,21.70
2023-02-11T17:04:53.494Z,20.42
2023-02-11T17:07:20.957Z,22.63
2023-02-11T17:09:48.320Z,17.90
2023-02-11T17:12:15.684Z,20.63
2023-02-11T17:14:42.954Z,20.50
2023-02-11T17:17:10.958Z,19.13
2023-02-11T17:19:38.327Z,21.27
2023-02-11T17:22:05.914Z,19.85
2023-02-11T17:24:33.215Z,18.00
2023-02-11T17:27:00.609Z,18.60
2023-02-11T17:29:27.945Z,18.63
2023-02-11T17:31:55.572Z,17.17
2023-02-11T17:34:23.172Z,17.38
2023-02-11T17:36:50.716Z,20.05
2023-02-11T17:39:19.364Z,18.00
2023-02-11T17:41:46.735Z,18.98
2023-02-11T17:44:15.631Z,27.27
2023-02-11T17:46:43.267Z,28.42
2023-02-11T17:49:11.825Z,28.20
2023-02-11T17:51:39.487Z,28.17
2023-02-11T17:54:14.744Z,28.40
2023-02-11T17:56:42.274Z,25.83
2023-02-11T17:59:09.983Z,31.15
2023-02-11T18:01:37.868Z,30.73
2023-02-11T18:04:05.879Z,46.73
2023-02-11T18:06:36.362Z,32.92
2023-02-11T18:09:04.558Z,27.98
2023-02-11T18:11:32.787Z,30.75
2023-02-11T18:14:01.234Z,31.40
2023-02-11T18:16:30.084Z,26.27
2023-02-11T18:18:58.163Z,27.48
2023-02-11T18:21:25.794Z,29.23
2023-02-11T18:23:53.361Z,28.70
2023-02-11T18:26:21.917Z,32.47
2023-02-11T18:28:49.404Z,30.57
2023-02-11T18:31:17.336Z,30.95
2023-02-11T18:33:44.997Z,41.63
2023-02-11T18:36:13.917Z,29.85
2023-02-11T18:38:41.507Z,26.65
2023-02-11T18:41:09.012Z,27.03
2023-02-11T18:43:36.658Z,28.08
2023-02-11T18:46:07.980Z,28.10
2023-02-11T18:48:35.544Z,27.58
2023-02-11T18:51:02.877Z,28.50
2023-02-11T18:53:30.264Z,26.83
2023-02-11T18:55:57.577Z,28.08
2023-02-11T18:58:24.988Z,25.95
2023-02-11T19:00:52.251Z,27.25
2023-02-11T19:03:19.624Z,27.80
2023-02-11T19:05:48.162Z,25.33
2023-02-11T19:08:15.786Z,26.88
2023-02-11T19:10:44.325Z,27.85
2023-02-11T19:13:14.660Z,27.73
2023-02-11T19:15:46.183Z,29.00
2023-02-11T19:18:14.391Z,30.93
2023-02-11T19:20:42.833Z,30.05
2023-02-11T19:23:10.468Z,32.63
2023-02-11T19:25:38.045Z,29.75
2023-02-11T19:28:05.524Z,31.42
2023-02-11T19:30:33.025Z,29.67
2023-02-11T19:33:00.468Z,30.52
2023-02-11T19:35:27.782Z,31.67
2023-02-11T19:37:55.176Z,28.55
2023-02-11T19:40:22.919Z,30.13
2023-02-11T19:42:50.563Z,29.87
2023-02-11T19:45:18.227Z,28.27
2023-02-11T19:47:45.549Z,28.85
2023-02-11T19:50:12.976Z,32.65
2023-02-11T19:52:40.905Z,34.58
2023-02-11T19:55:08.475Z,36.77
2023-02-11T19:57:36.678Z,39.83
2023-02-11T20:00:04.562Z,39.85
2023-02-11T20:02:40.118Z,39.17
2023-02-11T20:05:07.845Z,38.40
2023-02-11T20:07:35.422Z,33.17
2023-02-11T20:10:02.820Z,35.92
2023-02-11T20:12:30.126Z,31.67
2023-02-11T20:14:57.701Z,32.35
2023-02-11T20:17:25.133Z,35.47
2023-02-11T20:19:52.829Z,34.30
2023-02-11T20:22:20.228Z,38.65
2023-02-11T20:24:47.574Z,41.92
2023-02-11T20:27:14.887Z,42.83
2023-02-11T20:29:42.316Z,41.50
2023-02-11T20:32:10.963Z,45.83
2023-02-11T20:34:38.371Z,45.45
2023-02-11T20:37:06.874Z,47.55
2023-02-11T20:39:35.681Z,46.63
2023-02-11T20:42:03.049Z,45.50
2023-02-11T20:44:30.376Z,42.13
2023-02-11T20:46:57.700Z,44.20
2023-02-11T20:49:25.212Z,42.53
2023-02-11T20:51:53.976Z,44.80
2023-02-11T20:54:21.904Z,42.85
2023-02-11T20:56:51.278Z,32.50
2023-02-11T20:59:18.985Z,31.85
2023-02-11T21:01:48.780Z,31.92
2023-02-11T21:04:18.590Z,33.38
2023-02-11T21:06:50.785Z,31.70
2023-02-11T21:09:20.021Z,30.57
2023-02-11T21:11:47.671Z,31.52
2023-02-11T21:14:15.409Z,32.53
2023-02-11T21:16:42.772Z,31.55
2023-02-11T21:19:10.197Z,30.90
2023-02-11T21:21:37.648Z,30.73
2023-02-11T21:24:05.822Z,29.38
2023-02-11T21:26:33.595Z,30.70
2023-02-11T21:29:01.804Z,29.67
2023-02-11T21:31:30.122Z,29.98
2023-02-11T21:33:59.545Z,29.03
2023-02-11T21:36:27.743Z,31.10
2023-02-11T21:38:55.238Z,27.90
2023-02-11T21:41:22.646Z,22.92
2023-02-11T21:43:50.628Z,24.33
2023-02-11T21:46:18.406Z,25.00
2023-02-11T21:48:45.905Z,23.73
2023-02-11T21:51:18.001Z,21.58
2023-02-11T21:53:45.596Z,20.90
2023-02-11T21:56:17.247Z,21.40
2023-02-11T21:58:45.402Z,21.27
2023-02-11T22:01:19.009Z,22.00
2023-02-11T22:03:46.607Z,20.20
2023-02-11T22:06:15.834Z,21.38
2023-02-11T22:08:43.292Z,19.08
2023-02-11T22:11:12.347Z,19.23
2023-02-11T22:13:40.163Z,17.60
2023-02-11T22:16:09.437Z,18.48
2023-02-11T22:18:37.128Z,15.55
2023-02-11T22:21:10.325Z,13.80
2023-02-11T22:23:37.822Z,13.73
2023-02-11T22:26:07.120Z,15.00
2023-02-11T22:28:35.544Z,13.80
2023-02-11T22:31:02.940Z,12.63
2023-02-11T22:33:30.407Z,14.45
2023-02-11T22:36:01.891Z,12.33
2023-02-11T22:38:29.766Z,14.25
2023-02-11T22:40:58.478Z,12.57
2023-02-11T22:43:25.977Z,15.25
2023-02-11T22:45:56.413Z,15.25
2023-02-11T22:48:24.092Z,15.83
2023-02-11T22:50:51.367Z,11.82
2023-02-11T22:53:18.815Z,12.23
2023-02-11T22:55:46.105Z,10.15
2023-02-11T22:58:13.421Z,6.38
2023-02-11T23:00:41.139Z,5.50
2023-02-11T23:03:08.828Z,3.63
2023-02-11T23:05:40.020Z,3.90
2023-02-11T23:08:10.932Z,3.50
2023-02-11T23:10:38.716Z,3.67
2023-02-11T23:13:06.522Z,3.67
2023-02-11T23:15:34.014Z,3.33
2023-02-11T23:18:01.316Z,3.30
2023-02-11T23:20:28.707Z,3.00
2023-02-11T23:22:56.020Z,3.40
2023-02-11T23:25:23.370Z,2.70
2023-02-11T23:27:50.589Z,2.97
2023-02-11T23:30:18.495Z,2.70
2023-02-11T23:32:46.220Z,2.28
2023-02-11T23:35:22.003Z,2.33
2023-02-11T23:37:49.655Z,2.40
2023-02-11T23:40:17.489Z,2.20
2023-02-11T23:42:45.700Z,2.15
2023-02-11T23:45:13.061Z,1.92
2023-02-11T23:47:41.711Z,2.05
2023-02-11T23:50:09.986Z,2.43
2023-02-11T23:52:37.306Z,2.20
2023-02-11T23:55:05.002Z,2.45
2023-02-11T23:57:33.336Z,2.00
